Time;durP1;ratioP1;P1;durP2;ratioP2;P2;SDS_P1;SDS_P2;PMS_P1;PMS_P2;Temp;Humidity;BMP_temperature;BMP_pressure;BME280_temperature;BME280_humidity;BME280_pressure;Samples;Min_cycle;Max_cycle;Signal;HPM_P1;HPM_P2
2022/03/17 00:02:26;;;;;;;89.47;33.30;;;8.40;99.90;;;;;;6122042;23;20010;-86
2022/03/17 00:04:59;;;;;;;90.32;30.58;;;8.40;99.90;;;;;;6121968;23;20007;-85
2022/03/17 00:07:30;;;;;;;68.15;28.15;;;8.40;99.90;;;;;;6121849;23;20459;-86
2022/03/17 00:09:58;;;;;;;90.43;32.85;;;8.40;99.90;;;;;;6097446;23;20085;-86
2022/03/17 00:12:25;;;;;;;78.38;30.52;;;8.40;99.90;;;;;;6121754;23;20018;-85
2022/03/17 00:14:52;;;;;;;87.25;31.50;;;8.40;99.90;;;;;;6121918;23;20006;-86
2022/03/17 00:17:20;;;;;;;84.35;29.17;;;8.30;99.90;;;;;;6122167;23;20010;-86
2022/03/17 00:19:47;;;;;;;83.00;33.25;;;8.30;99.90;;;;;;6121900;23;20516;-86
2022/03/17 00:22:16;;;;;;;97.20;35.63;;;8.30;99.90;;;;;;6121637;23;20473;-87
2022/03/17 00:24:44;;;;;;;92.85;34.35;;;8.30;99.90;;;;;;6121034;23;20017;-86
2022/03/17 00:27:11;;;;;;;107.22;37.67;;;8.30;99.90;;;;;;6121568;23;20330;-86
2022/03/17 00:29:40;;;;;;;103.88;36.70;;;8.20;99.90;;;;;;6121757;23;20065;-87
2022/03/17 00:32:10;;;;;;;100.43;39.03;;;8.20;99.90;;;;;;6121794;23;20432;-86
2022/03/17 00:35:35;;;;;;;115.55;40.83;;;8.30;99.90;;;;;;6121731;23;20014;-86
2022/03/17 00:37:26;;;;;;;105.22;38.08;;;8.30;99.90;;;;;;6121707;23;20015;-86
2022/03/17 00:39:54;;;;;;;108.18;40.08;;;8.30;99.90;;;;;;6097348;23;20007;-86
2022/03/17 00:42:21;;;;;;;115.45;37.65;;;8.30;99.90;;;;;;6121316;23;20033;-85
2022/03/17 00:44:50;;;;;;;102.80;37.42;;;8.20;99.90;;;;;;6096890;23;20014;-86
2022/03/17 00:47:18;;;;;;;84.78;33.83;;;8.20;99.90;;;;;;6121513;23;20014;-86
2022/03/17 00:49:48;;;;;;;83.10;32.65;;;8.20;99.90;;;;;;6122018;23;20074;-86
2022/03/17 00:52:17;;;;;;;88.10;31.40;;;8.20;99.90;;;;;;6121649;23;20353;-86
2022/03/17 00:54:45;;;;;;;81.80;31.77;;;8.20;99.90;;;;;;6121528;23;20341;-86
2022/03/17 00:57:12;;;;;;;80.20;31.20;;;8.20;99.90;;;;;;6121637;23;20017;-87
2022/03/17 00:59:40;;;;;;;96.85;32.95;;;8.20;99.90;;;;;;6121701;23;20066;-86
2022/03/17 01:02:08;;;;;;;92.70;32.13;;;8.10;99.90;;;;;;6121412;23;20013;-85
2022/03/17 01:04:35;;;;;;;80.93;30.77;;;8.10;99.90;;;;;;6121511;23;20013;-87
2022/03/17 01:07:03;;;;;;;69.82;29.58;;;8.10;99.90;;;;;;6096985;23;20025;-86
2022/03/17 01:09:33;;;;;;;78.50;30.40;;;8.00;99.90;;;;;;6121386;23;20014;-86
2022/03/17 01:12:01;;;;;;;74.22;29.13;;;8.00;99.90;;;;;;6121441;23;20018;-86
2022/03/17 01:14:28;;;;;;;72.45;30.98;;;8.00;99.90;;;;;;6097145;23;20018;-86
2022/03/17 01:16:56;;;;;;;81.30;33.17;;;8.00;99.90;;;;;;6121456;23;20007;-86
2022/03/17 01:19:23;;;;;;;67.45;29.00;;;8.10;99.90;;;;;;6121571;23;20318;-87
2022/03/17 01:21:51;;;;;;;71.22;28.05;;;8.00;99.90;;;;;;6121635;23;20006;-85
2022/03/17 01:24:18;;;;;;;71.60;28.77;;;8.00;99.90;;;;;;6121435;23;20018;-86
2022/03/17 01:26:45;;;;;;;70.90;27.50;;;8.00;99.90;;;;;;6121394;23;20009;-86
2022/03/17 01:29:13;;;;;;;74.82;29.75;;;8.00;99.90;;;;;;6121324;23;20025;-86
2022/03/17 01:31:40;;;;;;;78.00;30.20;;;8.00;99.90;;;;;;6121337;23;20062;-86
2022/03/17 01:34:06;;;;;;;73.32;28.52;;;8.00;99.90;;;;;;6121441;23;20011;-86
2022/03/17 01:36:34;;;;;;;69.05;27.85;;;8.10;99.90;;;;;;6123158;23;20039;-86
2022/03/17 01:39:01;;;;;;;62.47;26.52;;;8.10;99.90;;;;;;6123609;23;20010;-86
2022/03/17 01:41:27;;;;;;;63.53;27.80;;;8.10;99.90;;;;;;6123146;23;20041;-86
2022/03/17 01:43:54;;;;;;;59.22;24.83;;;8.10;99.90;;;;;;6123216;23;20014;-86
2022/03/17 01:46:21;;;;;;;61.60;26.40;;;8.10;99.90;;;;;;6123228;23;20041;-86
2022/03/17 01:48:49;;;;;;;63.13;26.58;;;8.10;99.90;;;;;;6095894;23;20024;-86
2022/03/17 01:51:16;;;;;;;71.38;28.00;;;8.10;99.90;;;;;;6123317;23;20010;-87
2022/03/17 01:53:44;;;;;;;53.95;24.90;;;8.10;99.90;;;;;;6123343;23;20077;-86
2022/03/17 01:56:29;;;;;;;63.45;24.95;;;8.10;99.90;;;;;;6123098;23;20022;-86
2022/03/17 01:58:56;;;;;;;54.67;25.17;;;8.10;99.90;;;;;;6123318;23;20010;-87
2022/03/17 02:01:23;;;;;;;65.57;27.00;;;8.10;99.90;;;;;;6123336;23;20007;-86
2022/03/17 02:03:52;;;;;;;56.83;24.90;;;8.10;99.90;;;;;;6123148;23;20018;-85
2022/03/17 02:06:19;;;;;;;57.33;25.88;;;8.10;99.90;;;;;;6096828;23;20002;-86
2022/03/17 02:08:46;;;;;;;65.57;25.67;;;8.20;99.90;;;;;;6123117;23;20089;-86
2022/03/17 02:14:01;;;;;;;60.92;25.33;;;8.20;99.90;;;;;;6123142;23;20017;-87
2022/03/17 02:16:30;;;;;;;59.75;25.73;;;8.20;99.90;;;;;;6122717;23;20046;-86
2022/03/17 02:18:59;;;;;;;62.22;26.48;;;8.20;99.90;;;;;;6123303;23;20017;-87
2022/03/17 02:21:26;;;;;;;53.25;24.25;;;8.20;99.90;;;;;;6123252;23;20013;-86
2022/03/17 02:26:40;;;;;;;57.00;25.38;;;8.20;99.90;;;;;;6122703;23;20437;-87
2022/03/17 02:29:07;;;;;;;61.80;26.38;;;8.20;99.90;;;;;;6098577;23;20010;-86
2022/03/17 02:31:34;;;;;;;64.07;25.58;;;8.30;99.90;;;;;;6122927;23;20437;-86
2022/03/17 02:34:01;;;;;;;59.95;24.75;;;8.20;99.90;;;;;;6122838;23;20016;-87
2022/03/17 02:36:29;;;;;;;66.82;26.58;;;8.20;99.90;;;;;;6122806;23;20010;-86
2022/03/17 02:38:57;;;;;;;55.65;24.75;;;8.20;99.90;;;;;;6098524;23;20003;-87
2022/03/17 02:41:24;;;;;;;54.47;24.00;;;8.20;99.90;;;;;;6123135;23;20049;-86
2022/03/17 02:43:52;;;;;;;61.63;25.52;;;8.20;99.90;;;;;;6122725;23;20078;-87
2022/03/17 02:46:21;;;;;;;56.25;26.40;;;8.20;99.90;;;;;;6122242;23;20057;-86
2022/03/17 02:48:47;;;;;;;63.15;26.25;;;8.20;99.90;;;;;;6117121;23;20018;-86
2022/03/17 02:51:17;;;;;;;63.92;25.48;;;8.20;99.90;;;;;;6091201;23;20460;-86
2022/03/17 02:53:48;;;;;;;56.10;25.42;;;8.20;99.90;;;;;;6122670;23;20018;-86
2022/03/17 02:56:14;;;;;;;53.58;24.23;;;8.20;99.90;;;;;;6098355;23;20344;-87
2022/03/17 02:58:41;;;;;;;79.60;26.23;;;8.20;99.90;;;;;;6122754;23;20041;-86
2022/03/17 03:01:11;;;;;;;71.20;27.13;;;8.20;99.90;;;;;;6122650;23;20459;-86
2022/03/17 03:03:41;;;;;;;62.88;26.75;;;8.20;99.90;;;;;;6122503;23;20452;-87
2022/03/17 03:06:08;;;;;;;53.30;25.67;;;8.10;99.90;;;;;;6122632;23;20013;-87
2022/03/17 03:08:35;;;;;;;61.80;24.65;;;8.10;99.90;;;;;;6122535;23;20447;-86
2022/03/17 03:11:02;;;;;;;54.38;23.73;;;8.20;99.90;;;;;;6098005;23;20345;-87
2022/03/17 03:13:28;;;;;;;60.05;23.75;;;8.10;99.90;;;;;;6122540;23;20085;-86
2022/03/17 03:15:55;;;;;;;48.00;20.52;;;8.20;99.90;;;;;;6098096;23;20051;-87
2022/03/17 03:18:22;;;;;;;42.75;18.02;;;8.20;99.90;;;;;;6122731;23;20006;-86
2022/03/17 03:20:49;;;;;;;46.30;20.80;;;8.20;99.90;;;;;;6122691;23;20010;-86
2022/03/17 03:23:15;;;;;;;37.75;16.92;;;8.30;99.90;;;;;;6122471;23;20428;-87
2022/03/17 03:25:42;;;;;;;42.00;17.70;;;8.30;99.90;;;;;;6122481;23;20017;-86
2022/03/17 03:28:10;;;;;;;42.92;17.35;;;8.30;99.90;;;;;;6122281;23;20042;-87
2022/03/17 03:30:40;;;;;;;41.80;16.45;;;8.20;99.90;;;;;;6122306;23;20018;-86
2022/03/17 03:33:07;;;;;;;38.58;16.55;;;8.20;99.90;;;;;;6122307;23;20021;-86
2022/03/17 03:38:21;;;;;;;43.63;17.67;;;8.30;99.90;;;;;;6122406;23;20020;-87
2022/03/17 03:40:48;;;;;;;37.63;17.85;;;8.20;99.90;;;;;;6126974;23;20392;-87
2022/03/17 03:43:15;;;;;;;42.83;16.85;;;8.30;99.90;;;;;;6102554;23;20024;-87
2022/03/17 03:45:41;;;;;;;46.08;18.10;;;8.30;99.90;;;;;;6102630;23;20006;-86
2022/03/17 03:48:08;;;;;;;42.22;19.70;;;8.30;99.90;;;;;;6102328;23;20448;-87
2022/03/17 03:50:37;;;;;;;49.97;19.35;;;8.30;99.90;;;;;;6102607;23;20028;-86
2022/03/17 03:53:05;;;;;;;37.13;18.27;;;8.30;99.90;;;;;;6102436;23;20017;-86
2022/03/17 03:55:32;;;;;;;41.58;15.88;;;8.10;99.90;;;;;;6102399;23;20002;-86
2022/03/17 03:58:00;;;;;;;46.40;19.30;;;8.20;99.90;;;;;;6102552;23;20014;-86
2022/03/17 04:00:33;;;;;;;40.67;18.40;;;8.20;99.90;;;;;;6102427;23;20002;-86
2022/03/17 04:03:03;;;;;;;47.05;19.13;;;8.20;99.90;;;;;;6102616;23;20021;-86
2022/03/17 04:05:34;;;;;;;53.60;21.38;;;8.20;99.90;;;;;;6102315;23;20021;-86
2022/03/17 04:08:03;;;;;;;48.40;21.13;;;8.20;99.90;;;;;;6102287;23;20093;-87
2022/03/17 04:10:30;;;;;;;46.00;19.73;;;8.20;99.90;;;;;;6102124;23;20016;-86
2022/03/17 04:12:58;;;;;;;49.97;18.42;;;8.20;99.90;;;;;;6102339;23;20013;-87
2022/03/17 04:15:25;;;;;;;52.55;19.50;;;8.30;99.90;;;;;;6078524;23;20006;-86
2022/03/17 04:17:52;;;;;;;40.97;17.95;;;8.40;99.90;;;;;;6102548;23;20010;-86
2022/03/17 04:20:19;;;;;;;36.55;17.08;;;8.30;99.90;;;;;;6102282;23;20002;-87
2022/03/17 04:22:46;;;;;;;37.53;16.35;;;8.30;99.90;;;;;;6102179;23;20029;-86
2022/03/17 04:25:13;;;;;;;42.92;17.48;;;8.30;99.90;;;;;;6102144;23;20006;-86
2022/03/17 04:27:41;;;;;;;41.55;18.42;;;8.30;99.90;;;;;;6102056;23;20013;-86
2022/03/17 04:30:09;;;;;;;43.20;17.70;;;8.30;99.90;;;;;;6102204;23;20400;-87
2022/03/17 04:32:35;;;;;;;45.25;19.90;;;8.40;99.90;;;;;;6102185;23;20009;-87
2022/03/17 04:35:02;;;;;;;35.08;17.40;;;8.40;99.90;;;;;;6102252;23;20013;-86
2022/03/17 04:37:29;;;;;;;36.55;17.15;;;8.40;99.90;;;;;;6102155;23;20006;-86
2022/03/17 04:39:56;;;;;;;37.03;17.15;;;8.30;99.90;;;;;;6101941;23;20467;-86
2022/03/17 04:42:23;;;;;;;39.25;16.30;;;8.30;99.90;;;;;;6096845;23;20105;-87
2022/03/17 04:44:49;;;;;;;39.28;16.88;;;8.30;99.90;;;;;;6073141;23;20033;-87
2022/03/17 04:47:21;;;;;;;39.28;17.27;;;8.30;99.90;;;;;;6073043;23;20018;-87
2022/03/17 04:49:51;;;;;;;42.03;16.83;;;8.30;99.90;;;;;;6073397;23;20033;-87
2022/03/17 04:55:04;;;;;;;38.10;17.48;;;8.20;99.90;;;;;;6097386;23;20086;-87
2022/03/17 04:57:31;;;;;;;32.75;16.38;;;8.20;99.90;;;;;;6073175;23;20014;-87
2022/03/17 04:59:58;;;;;;;37.00;17.33;;;8.10;99.90;;;;;;6072975;23;20006;-87
2022/03/17 05:02:24;;;;;;;37.78;15.15;;;8.10;99.90;;;;;;6073239;23;20463;-87
2022/03/17 05:04:52;;;;;;;34.22;15.90;;;8.10;99.90;;;;;;6073132;23;20463;-86
2022/03/17 05:07:20;;;;;;;36.78;16.73;;;8.20;99.90;;;;;;6072826;23;20022;-87
2022/03/17 05:09:47;;;;;;;39.80;15.27;;;8.20;99.90;;;;;;6072868;23;20424;-86
2022/03/17 05:12:14;;;;;;;29.65;14.70;;;8.20;99.90;;;;;;6073126;23;20013;-86
2022/03/17 05:14:41;;;;;;;35.22;15.75;;;8.30;99.90;;;;;;6073231;23;20086;-86
2022/03/17 05:17:08;;;;;;;32.55;14.60;;;8.30;99.90;;;;;;6072905;23;20033;-91
2022/03/17 05:19:34;;;;;;;34.00;14.85;;;8.30;99.90;;;;;;6073047;23;20013;-87
2022/03/17 05:22:02;;;;;;;42.20;15.43;;;8.30;99.90;;;;;;6073201;23;20021;-85
2022/03/17 05:24:30;;;;;;;29.33;13.57;;;8.30;99.90;;;;;;6073157;23;20058;-86
2022/03/17 05:26:57;;;;;;;27.83;14.23;;;8.30;99.90;;;;;;6072627;23;20006;-87
2022/03/17 05:29:24;;;;;;;35.17;14.38;;;8.40;99.90;;;;;;6072893;23;20018;-88
2022/03/17 05:31:51;;;;;;;40.00;14.70;;;8.30;99.90;;;;;;6072946;23;20056;-87
2022/03/17 05:34:18;;;;;;;38.28;15.90;;;8.10;99.90;;;;;;6072928;23;20463;-88
2022/03/17 05:36:45;;;;;;;35.70;15.05;;;8.20;99.90;;;;;;6072991;23;20014;-85
2022/03/17 05:39:11;;;;;;;31.40;14.48;;;8.30;99.90;;;;;;6072912;23;20010;-86
2022/03/17 05:41:38;;;;;;;32.42;14.52;;;8.40;99.90;;;;;;6082440;23;20022;-89
2022/03/17 05:44:07;;;;;;;28.20;13.55;;;8.40;99.90;;;;;;6121369;23;20006;-87
2022/03/17 05:46:34;;;;;;;32.88;14.13;;;8.50;99.90;;;;;;6121083;23;20017;-89
2022/03/17 05:49:01;;;;;;;28.65;13.10;;;8.60;99.90;;;;;;6121305;23;20105;-87
2022/03/17 05:51:28;;;;;;;32.50;14.98;;;8.70;99.90;;;;;;6121663;23;20046;-89
2022/03/17 05:53:55;;;;;;;31.50;13.90;;;8.80;99.90;;;;;;6121718;23;20422;-88
2022/03/17 05:56:21;;;;;;;32.15;14.10;;;8.90;99.90;;;;;;6121275;23;20077;-90
2022/03/17 05:58:47;;;;;;;30.33;14.43;;;8.90;99.90;;;;;;6121197;23;20089;-91
2022/03/17 06:01:14;;;;;;;38.40;15.15;;;8.90;99.90;;;;;;6121162;23;20003;-88
2022/03/17 06:03:41;;;;;;;26.45;13.50;;;9.00;99.90;;;;;;6120980;23;20014;-89
2022/03/17 06:06:07;;;;;;;43.38;18.25;;;9.00;99.90;;;;;;6121221;23;20007;-88
2022/03/17 06:08:34;;;;;;;37.25;17.10;;;9.00;99.90;;;;;;6096796;23;20345;-88
2022/03/17 06:11:04;;;;;;;42.20;17.50;;;9.10;99.90;;;;;;6121680;23;20093;-88
2022/03/17 06:13:31;;;;;;;40.55;16.35;;;9.20;99.90;;;;;;6121434;23;20488;-90
2022/03/17 06:15:58;;;;;;;35.22;16.50;;;9.30;99.90;;;;;;6096714;23;20177;-91
2022/03/17 06:18:25;;;;;;;36.60;14.88;;;9.40;99.90;;;;;;6120990;23;20496;-92
2022/03/17 06:20:51;;;;;;;28.38;13.85;;;9.60;99.90;;;;;;6121552;23;20322;-88
2022/03/17 06:23:18;;;;;;;31.50;15.60;;;9.70;99.90;;;;;;6122933;23;20010;-91
2022/03/17 06:25:46;;;;;;;36.30;15.88;;;9.70;99.90;;;;;;6123079;23;20081;-91
2022/03/17 06:28:14;;;;;;;31.52;15.07;;;9.70;99.90;;;;;;6122908;23;20022;-89
2022/03/17 06:30:41;;;;;;;40.17;17.23;;;9.80;99.90;;;;;;6123091;23;20013;-90
2022/03/17 06:33:07;;;;;;;31.08;14.27;;;9.90;99.90;;;;;;6122873;23;20017;-91
2022/03/17 06:35:35;;;;;;;28.73;14.23;;;10.00;99.90;;;;;;6122723;23;20010;-90
2022/03/17 06:38:04;;;;;;;31.15;14.45;;;10.20;99.90;;;;;;6122851;23;20002;-91
2022/03/17 06:40:32;;;;;;;32.65;14.20;;;10.20;99.90;;;;;;6123239;23;20536;-91
2022/03/17 06:42:59;;;;;;;30.45;13.15;;;10.30;99.90;;;;;;6127663;23;20009;-91
2022/03/17 06:45:26;;;;;;;30.17;12.90;;;10.50;99.90;;;;;;6103219;23;20014;-92
2022/03/17 06:47:53;;;;;;;33.20;13.13;;;10.50;99.90;;;;;;6103109;23;20014;-90
2022/03/17 06:50:21;;;;;;;26.00;12.30;;;10.60;99.90;;;;;;6103415;23;20097;-89
2022/03/17 06:52:49;;;;;;;37.40;12.40;;;10.70;99.90;;;;;;6103031;23;20017;-88
2022/03/17 06:55:19;;;;;;;30.05;13.40;;;10.80;99.90;;;;;;6102984;23;20006;-89
2022/03/17 06:57:46;;;;;;;32.08;12.50;;;10.80;99.90;;;;;;6102929;23;20462;-88
2022/03/17 07:00:18;;;;;;;26.70;11.68;;;10.90;99.90;;;;;;6102930;23;20006;-88
2022/03/17 07:02:45;;;;;;;25.90;10.60;;;11.00;99.90;;;;;;6103049;23;20094;-88
2022/03/17 07:05:12;;;;;;;29.70;11.32;;;11.20;99.90;;;;;;6103218;23;20081;-88
2022/03/17 07:07:39;;;;;;;28.35;12.38;;;11.30;99.90;;;;;;6102877;23;20052;-88
2022/03/17 07:10:07;;;;;;;32.65;12.23;;;11.60;99.90;;;;;;6103061;23;20340;-87
2022/03/17 07:12:39;;;;;;;35.25;13.02;;;11.60;99.90;;;;;;6102949;23;20014;-88
2022/03/17 07:15:06;;;;;;;32.25;11.60;;;11.80;99.90;;;;;;6102846;23;20006;-89
2022/03/17 07:17:39;;;;;;;30.00;12.02;;;12.00;99.90;;;;;;6102927;23;20017;-89
2022/03/17 07:20:15;;;;;;;36.10;14.25;;;12.00;99.90;;;;;;6102800;23;20013;-88
2022/03/17 07:22:49;;;;;;;31.90;11.88;;;12.20;99.90;;;;;;6103121;23;20016;-88
2022/03/17 07:25:17;;;;;;;30.17;10.32;;;12.30;99.90;;;;;;6102881;23;20061;-88
2022/03/17 07:27:46;;;;;;;33.90;11.60;;;12.10;99.90;;;;;;6102542;23;20025;-88
2022/03/17 07:30:22;;;;;;;24.50;11.85;;;12.10;99.90;;;;;;6102698;23;20080;-88
2022/03/17 07:32:59;;;;;;;20.08;9.25;;;12.40;99.90;;;;;;6102527;23;20010;-90
2022/03/17 07:35:27;;;;;;;19.67;9.27;;;12.60;99.90;;;;;;6102887;23;20057;-89
2022/03/17 07:37:54;;;;;;;16.77;7.97;;;12.70;99.90;;;;;;6102629;23;20010;-91
2022/03/17 07:40:21;;;;;;;20.23;9.07;;;12.90;99.90;;;;;;6102866;23;20013;-91
2022/03/17 07:42:48;;;;;;;20.70;7.55;;;12.80;99.90;;;;;;6097487;23;20093;-91
2022/03/17 07:45:41;;;;;;;20.83;7.18;;;13.10;99.90;;;;;;6054126;23;20021;-88
2022/03/17 07:48:48;;;;;;;13.75;5.82;;;13.40;99.90;;;;;;5995031;23;20020;-88
2022/03/17 07:51:24;;;;;;;12.38;4.95;;;13.40;99.90;;;;;;5987812;23;20016;-89
2022/03/17 07:53:54;;;;;;;8.02;4.35;;;13.80;99.90;;;;;;6058836;23;20017;-89
2022/03/17 07:56:21;;;;;;;13.70;5.25;;;13.90;99.90;;;;;;6097713;23;20018;-88
2022/03/17 07:58:51;;;;;;;6.88;3.70;;;14.00;99.90;;;;;;6097752;23;20053;-88
2022/03/17 08:01:18;;;;;;;15.02;3.78;;;14.00;99.90;;;;;;6097650;23;20010;-88
2022/03/17 08:03:45;;;;;;;14.07;4.70;;;14.10;99.90;;;;;;6097840;23;20006;-90
2022/03/17 08:06:13;;;;;;;8.55;4.50;;;14.10;99.90;;;;;;6097327;23;20014;-90
2022/03/17 08:08:41;;;;;;;8.32;3.58;;;13.70;99.90;;;;;;6097494;23;20019;-86
2022/03/17 08:11:18;;;;;;;11.52;4.00;;;13.60;99.90;;;;;;6097658;23;20010;-89
2022/03/17 08:13:45;;;;;;;7.75;3.28;;;13.80;99.90;;;;;;6097628;23;20021;-90
2022/03/17 08:16:14;;;;;;;7.20;3.38;;;13.70;99.90;;;;;;6097370;23;20012;-89
2022/03/17 08:18:42;;;;;;;8.35;3.20;;;13.70;99.90;;;;;;6097407;23;20014;-89
2022/03/17 08:21:08;;;;;;;10.45;3.67;;;13.80;99.90;;;;;;6097447;23;20460;-90
2022/03/17 08:23:36;;;;;;;9.60;3.17;;;13.90;99.90;;;;;;6097488;23;20433;-89
2022/03/17 08:26:03;;;;;;;19.65;3.20;;;14.00;99.90;;;;;;6097230;23;20014;-90
2022/03/17 08:28:30;;;;;;;16.52;3.55;;;14.10;99.90;;;;;;6097369;23;20041;-89
2022/03/17 08:30:56;;;;;;;12.68;3.72;;;14.40;99.90;;;;;;6097545;23;20009;-90
2022/03/17 08:33:23;;;;;;;7.40;3.15;;;15.00;99.90;;;;;;6097169;23;20516;-91
2022/03/17 08:35:50;;;;;;;10.30;2.40;;;15.50;99.90;;;;;;6096993;23;20077;-91
2022/03/17 08:38:17;;;;;;;10.77;3.10;;;16.00;99.90;;;;;;6097316;23;20018;-89
2022/03/17 08:40:44;;;;;;;8.00;3.30;;;15.80;99.90;;;;;;6101902;23;20011;-90
2022/03/17 08:43:12;;;;;;;6.43;2.45;;;15.90;99.90;;;;;;6102158;23;20028;-89
2022/03/17 08:51:19;;;;;;;8.77;2.97;;;16.10;99.90;;;;;;6092944;23;20057;-90
2022/03/17 08:53:46;;;;;;;9.02;2.33;;;16.10;99.90;;;;;;6102016;23;20325;-90
2022/03/17 08:56:12;;;;;;;7.30;3.10;;;16.10;99.90;;;;;;6102115;23;20089;-90
2022/03/17 08:58:39;;;;;;;12.60;2.65;;;16.30;99.90;;;;;;6102116;23;20340;-89
2022/03/17 09:01:06;;;;;;;8.70;2.40;;;15.90;99.90;;;;;;6102104;23;20010;-89
2022/03/17 09:03:33;;;;;;;6.43;3.53;;;15.80;99.90;;;;;;6102139;23;20010;-90
2022/03/17 09:06:00;;;;;;;5.80;2.30;;;15.90;99.90;;;;;;6102033;23;20006;-89
2022/03/17 09:08:27;;;;;;;4.30;2.60;;;16.00;99.90;;;;;;6102087;23;20050;-90
2022/03/17 09:10:55;;;;;;;6.10;2.22;;;16.10;99.90;;;;;;6102039;23;20010;-89
2022/03/17 09:13:25;;;;;;;13.40;2.17;;;16.00;99.90;;;;;;6101989;23;20012;-89
2022/03/17 09:15:54;;;;;;;5.60;2.30;;;16.00;99.90;;;;;;6101840;23;20061;-90
2022/03/17 09:18:22;;;;;;;12.88;2.00;;;15.90;99.90;;;;;;6102204;23;20017;-89
2022/03/17 09:20:50;;;;;;;5.07;1.58;;;15.90;99.90;;;;;;6102142;23;20010;-89
2022/03/17 09:23:18;;;;;;;4.45;2.03;;;16.00;99.90;;;;;;6101899;23;20006;-90
2022/03/17 09:25:45;;;;;;;3.65;2.30;;;15.90;99.90;;;;;;6101859;23;20499;-90
2022/03/17 09:28:13;;;;;;;6.05;2.58;;;15.80;99.90;;;;;;6101754;23;20136;-90
2022/03/17 09:30:41;;;;;;;6.70;2.50;;;15.60;99.90;;;;;;6101815;23;20038;-90
2022/03/17 09:33:09;;;;;;;7.45;2.55;;;15.30;99.90;;;;;;6101881;23;20010;-89
2022/03/17 09:35:35;;;;;;;6.60;2.83;;;15.40;99.90;;;;;;6102046;23;20014;-89
2022/03/17 09:38:05;;;;;;;4.65;2.50;;;15.30;99.90;;;;;;6101862;23;20085;-89
2022/03/17 09:40:34;;;;;;;6.45;2.63;;;15.20;99.90;;;;;;6101645;23;20069;-90
2022/03/17 09:43:21;;;;;;;4.57;1.63;;;15.30;99.90;;;;;;6101815;23;20102;-91
2022/03/17 09:45:50;;;;;;;9.45;2.60;;;15.50;99.90;;;;;;6101712;23;20017;-90
2022/03/17 09:48:20;;;;;;;3.97;1.70;;;15.80;99.90;;;;;;6101674;23;20348;-88
2022/03/17 09:50:54;;;;;;;1.60;1.42;;;15.90;99.90;;;;;;6101691;23;20033;-88
2022/03/17 09:53:21;;;;;;;11.23;2.20;;;15.80;99.90;;;;;;6102086;23;20097;-89
2022/03/17 09:55:47;;;;;;;5.90;2.28;;;15.90;99.90;;;;;;6102115;23;20013;-88
2022/03/17 09:58:18;;;;;;;5.07;2.25;;;16.00;99.90;;;;;;6103759;23;20435;-90
2022/03/17 10:00:47;;;;;;;3.45;2.13;;;16.10;99.90;;;;;;6103708;23;20033;-89
2022/03/17 10:03:19;;;;;;;3.67;1.58;;;16.10;99.90;;;;;;6104940;23;20376;-89
2022/03/17 10:05:50;;;;;;;5.90;2.10;;;16.20;99.90;;;;;;6103879;23;20064;-89
2022/03/17 10:08:20;;;;;;;3.78;1.45;;;16.20;99.90;;;;;;6103664;23;20025;-88
2022/03/17 10:10:49;;;;;;;9.27;2.33;;;16.30;99.90;;;;;;6103840;23;20010;-89
2022/03/17 10:13:22;;;;;;;9.52;2.17;;;16.30;99.90;;;;;;6103526;23;20101;-90
2022/03/17 10:16:22;;;;;;;2.08;1.85;;;16.40;99.90;;;;;;6103667;23;20337;-89
2022/03/17 10:18:57;;;;;;;4.80;1.55;;;16.40;99.90;;;;;;6103731;23;20444;-89
2022/03/17 10:21:24;;;;;;;6.90;2.20;;;16.50;99.90;;;;;;6103564;23;20391;-89
2022/03/17 10:23:55;;;;;;;2.47;1.50;;;16.60;99.90;;;;;;6103400;23;20014;-91
2022/03/17 10:26:50;;;;;;;4.35;1.80;;;16.60;99.90;;;;;;6103928;23;20006;-89
2022/03/17 10:29:22;;;;;;;2.88;1.23;;;16.60;99.90;;;;;;6103594;23;20010;-89
2022/03/17 10:32:07;;;;;;;6.28;2.03;;;16.70;99.90;;;;;;6103583;23;20021;-90
2022/03/17 10:34:51;;;;;;;6.20;2.08;;;16.70;99.90;;;;;;6103012;23;20014;-90
2022/03/17 10:37:20;;;;;;;3.45;1.40;;;16.80;99.90;;;;;;6128984;23;20428;-89
2022/03/17 10:39:51;;;;;;;4.80;1.85;;;16.90;99.90;;;;;;6079296;23;20009;-89
2022/03/17 10:42:20;;;;;;;2.22;1.42;;;16.90;99.90;;;;;;6098300;23;20018;-89
2022/03/17 10:44:56;;;;;;;1.25;1.10;;;16.80;99.90;;;;;;6098657;23;20010;-89
2022/03/17 10:47:23;;;;;;;5.32;1.55;;;16.80;99.90;;;;;;6073982;23;20010;-90
2022/03/17 10:50:19;;;;;;;6.28;1.83;;;16.80;99.90;;;;;;6122746;23;20077;-91
2022/03/17 10:52:56;;;;;;;3.17;1.58;;;16.90;99.90;;;;;;6097028;23;20381;-90
2022/03/17 10:55:33;;;;;;;5.70;1.58;;;17.10;99.90;;;;;;6098145;23;20014;-91
2022/03/17 10:58:20;;;;;;;7.45;1.85;;;17.10;99.90;;;;;;6098303;23;20051;-90
2022/03/17 11:00:52;;;;;;;3.35;1.52;;;17.00;99.90;;;;;;6122883;23;20437;-90
2022/03/17 11:03:21;;;;;;;3.55;1.42;;;17.10;99.90;;;;;;6122653;23;20014;-91
2022/03/17 11:05:51;;;;;;;6.25;1.38;;;17.00;99.90;;;;;;6098246;23;20101;-92
2022/03/17 11:08:20;;;;;;;3.00;1.25;;;17.00;99.90;;;;;;6097721;23;20018;-89
2022/03/17 11:10:47;;;;;;;4.20;1.88;;;17.10;99.90;;;;;;6098098;23;20006;-90
2022/03/17 11:13:17;;;;;;;1.33;1.10;;;17.20;99.90;;;;;;6098125;23;20074;-90
2022/03/17 11:16:06;;;;;;;3.95;1.73;;;17.30;99.90;;;;;;6097931;23;20014;-91
2022/03/17 11:18:38;;;;;;;3.53;1.38;;;17.10;99.90;;;;;;6098330;23;20010;-90
2022/03/17 11:21:26;;;;;;;5.97;1.85;;;17.00;99.90;;;;;;6098124;23;20010;-90
2022/03/17 11:24:01;;;;;;;5.43;1.88;;;17.00;99.90;;;;;;6097899;23;20010;-90
2022/03/17 11:26:46;;;;;;;5.32;1.48;;;17.00;99.90;;;;;;6097971;23;20055;-91
2022/03/17 11:29:18;;;;;;;3.78;1.92;;;17.00;99.90;;;;;;6099257;23;20441;-91
2022/03/17 11:31:57;;;;;;;8.40;2.47;;;16.80;99.90;;;;;;6099311;23;20006;-89
2022/03/17 11:34:48;;;;;;;6.00;2.83;;;16.70;99.90;;;;;;6122877;23;20010;-89
2022/03/17 12:04:04;;;;;;;4.15;1.65;;;16.20;99.90;;;;;;6183912;23;20023;-91
2022/03/17 12:06:38;;;;;;;5.38;2.60;;;16.20;99.90;;;;;;6166094;23;20016;-93
2022/03/17 12:09:06;;;;;;;;;;;16.10;99.90;;;;;;6166832;23;20013;-91
2022/03/17 12:11:36;;;;;;;6.95;1.90;;;16.10;99.90;;;;;;6166206;23;19904;-91
2022/03/17 12:14:14;;;;;;;9.88;1.83;;;16.10;99.90;;;;;;6161151;23;20017;-93
2022/03/17 12:16:46;;;;;;;10.77;2.35;;;16.20;99.90;;;;;;6161076;23;20005;-91
2022/03/17 12:19:48;;;;;;;10.25;2.55;;;16.20;99.90;;;;;;6185990;23;20020;-93
2022/03/17 12:22:37;;;;;;;10.68;3.05;;;16.10;99.90;;;;;;6161161;23;20005;-92
2022/03/17 12:25:23;;;;;;;25.27;2.38;;;16.20;99.90;;;;;;6161268;23;20438;-93
2022/03/17 12:28:00;;;;;;;6.72;1.90;;;16.40;99.90;;;;;;6160875;23;20091;-93
2022/03/17 12:30:28;;;;;;;7.25;1.75;;;16.50;99.90;;;;;;6161003;23;20012;-92
2022/03/17 12:32:56;;;;;;;8.38;2.22;;;16.50;99.90;;;;;;6161000;23;20013;-91
2022/03/17 12:35:30;;;;;;;4.78;1.45;;;16.60;99.90;;;;;;6160756;23;20008;-94
2022/03/17 12:38:02;;;;;;;5.53;1.92;;;16.70;99.90;;;;;;6161066;23;20447;-92
2022/03/17 12:40:34;;;;;;;10.10;3.15;;;16.70;99.90;;;;;;6160859;23;20005;-92
2022/03/17 12:43:13;;;;;;;4.50;1.63;;;16.80;99.90;;;;;;6185981;23;20013;-92
2022/03/17 12:45:43;;;;;;;8.35;2.63;;;16.90;99.90;;;;;;6160867;23;20032;-93
2022/03/17 12:48:13;;;;;;;6.13;1.75;;;17.10;99.90;;;;;;6161002;23;20017;-94
2022/03/17 12:50:40;;;;;;;4.57;1.67;;;17.10;99.90;;;;;;6161347;23;20080;-92
2022/03/17 12:53:06;;;;;;;8.18;2.45;;;17.10;99.90;;;;;;6160963;23;20013;-92
2022/03/17 12:55:35;;;;;;;6.22;2.38;;;17.10;99.90;;;;;;6160831;23;20009;-93
2022/03/17 12:58:02;;;;;;;12.68;2.13;;;17.20;99.90;;;;;;6160819;23;20077;-92
2022/03/17 13:00:29;;;;;;;7.65;2.05;;;17.10;99.90;;;;;;6160847;23;20009;-91
2022/03/17 13:03:00;;;;;;;9.40;2.00;;;17.10;99.90;;;;;;6160739;23;20008;-92
2022/03/17 13:08:18;;;;;;;9.18;2.00;;;17.10;99.90;;;;;;6182308;23;20022;-91
2022/03/17 13:16:16;;;;;;;10.75;2.88;;;16.80;99.90;;;;;;6180838;23;20037;-93
2022/03/17 13:18:51;;;;;;;9.02;2.47;;;16.60;99.90;;;;;;6156193;23;20016;-92
2022/03/17 13:21:24;;;;;;;7.07;3.25;;;16.50;99.90;;;;;;6156191;23;20022;-94
2022/03/17 13:23:52;;;;;;;4.55;2.47;;;16.50;99.90;;;;;;6155750;23;20010;-92
2022/03/17 13:26:30;;;;;;;7.15;3.60;;;16.30;99.90;;;;;;6155669;23;20006;-92
2022/03/17 13:29:06;;;;;;;16.60;3.22;;;16.40;99.90;;;;;;6155624;23;20017;-93
2022/03/17 13:31:46;;;;;;;4.93;2.50;;;16.40;99.90;;;;;;6156496;23;20087;-92
2022/03/17 13:34:34;;;;;;;7.72;3.15;;;16.40;99.90;;;;;;6155681;23;20449;-91
2022/03/17 13:53:21;;;;;;;;;;;;;;;;;;;;;
2022/03/17 13:56:43;;;;;;;9.98;2.47;;;16.70;99.90;;;;;;6187857;23;20100;-94
2022/03/17 13:59:16;;;;;;;9.10;2.42;;;16.70;99.90;;;;;;6161199;23;20423;-93
2022/03/17 14:02:38;;;;;;;4.68;2.20;;;16.50;99.90;;;;;;6136727;23;20005;-94
2022/03/17 14:05:33;;;;;;;8.60;1.75;;;16.30;99.90;;;;;;6159726;23;20005;-93